Share

Kasumigaura Air Base, Japan

Hyakuri Aero (RJAH) Elev 115 ft | 36.18 °N, 140.41 °E | Change Station

Current weather conditions updated 19 minutes ago

Overcast
Overcast
52 °F
Feels Like 52 °F
N
2
Wind Variable Wind from Variable
Sunrise 4:59 AM
Sunset 6:17 PM
Moon Waning Gibbous

Today is forecast to be Much Warmer than yesterday. Showers possible.

Pressure 30.09 in
Visibility 1.9 miles
Clouds Few 400 ft
Mostly Cloudy 600 ft
Overcast 3000 ft
Dew Point 48 °F
Humidity 88%
Rainfall 0.00 in
Snow Depth Not available.
UV 1 out of 16
Pollen Not available.
Air Quality Not available.
Flu Activity Not available.
METAR RJAH 202300Z VRB02KT 3000 BR FEW004 BKN006 OVC030 11/09 Q1019

More Conditions Fewer Conditions

Pressure 30.09 in
Visibility 1.9 miles
Clouds Few 400 ft
Mostly Cloudy 600 ft
Overcast 3000 ft
Dew Point 48 °F
Humidity 88%
Rainfall 0.00 in
Snow Depth Not available.
UV 1 out of 16
Pollen Not available.
Air Quality Not available.
Flu Activity Not available.
METAR RJAH 202300Z VRB02KT 3000 BR FEW004 BKN006 OVC030 11/09 Q1019

More Conditions Fewer Conditions

10-Day Weather Forecast

Almanac

Astronomy

Apr. 21, 2014 Rise Set
Actual Time 4:59 AM JST 6:17 PM JST
Civil Twilight 4:32 AM JST 6:44 PM JST
Nautical Twilight 4:00 AM JST 7:16 PM JST
Astronomical Twilight 3:27 AM JST 7:49 PM JST
Moon No Moon Rise 9:46 AM JST (4/21)
Length of Visible Light 14h 11m
Length of Day
13h 18m
Tomorrow will be 2m 6s longer.
Waning Gibbous, 65% of the Moon is Illuminated
Apr 20
Waning Gibbous
Apr 22
Last Quarter
Apr 29
New
May 6
First Quarter
May 14
Full

Yesterday's Extremes

Country Highs Country Lows

Community

  • Easter Dance
    Easter Dance
  • spring skiing mount Baker WA
    spring skiing mount Baker WA
  • Morning Sun
    Morning Sun
  • Happy Easter
    Happy Easter
  • after rain
    after rain

WunderPhotos

Upload Photos

1,703,428 photos uploaded!

WunderBlogs® & News

Nearby

Snow Depth

Not available.

Coastal Water Temperatures

Place Temperature
No Stations Reporting

Earthquake Activity

City Distance Mag. Time & Date
No recent earthquake activity has been reported nearby.
Minimum magnitude displayed is 2.5.

Nearby Weather Stations

Station Location Temp. Dew Point Humidity Wind Precip. Elev Updated Type
Funabashi, Funabashi 52.7 °F 51 °F 95% WSW  at  0.0 mph 0.00 in / hr 92 ft 8:18 AM JST Rapid Fire

Show More Stations Show Fewer Stations

What do you think?

We're not finished. Please let us know what you like, what you don't like, and what you are still missing.